Time;durP1;ratioP1;P1;durP2;ratioP2;P2;SDS_P1;SDS_P2;PMS_P1;PMS_P2;Temp;Humidity;BMP_temperature;BMP_pressure;BME280_temperature;BME280_humidity;BME280_pressure;Samples;Min_cycle;Max_cycle;Signal;HPM_P1;HPM_P2
2021/01/11 00:00:57;;;;;;;10.68;3.85;;;-1.50;99.90;;;;;;5079359;28;20845;-64
2021/01/11 00:03:23;;;;;;;9.55;2.92;;;-1.50;99.90;;;;;;5079771;28;20113;-64
2021/01/11 00:05:48;;;;;;;11.35;3.55;;;-1.40;99.90;;;;;;5049752;28;20552;-63
2021/01/11 00:08:14;;;;;;;7.82;3.30;;;-1.40;99.90;;;;;;5041274;28;20064;-63
2021/01/11 00:10:40;;;;;;;7.57;3.20;;;-1.40;99.90;;;;;;5046762;28;20090;-63
2021/01/11 00:13:05;;;;;;;7.68;3.20;;;-1.30;99.90;;;;;;5052854;28;20079;-63
2021/01/11 00:15:31;;;;;;;5.22;3.17;;;-1.30;99.90;;;;;;5043355;28;20075;-64
2021/01/11 00:17:56;;;;;;;8.77;3.65;;;-1.30;99.90;;;;;;5031422;28;20045;-63
2021/01/11 00:20:22;;;;;;;10.35;3.35;;;-1.30;99.90;;;;;;5028059;28;20048;-63
2021/01/11 00:22:47;;;;;;;7.90;3.10;;;-1.30;99.90;;;;;;5029431;28;20044;-63
2021/01/11 00:25:14;;;;;;;12.38;3.60;;;-1.20;99.90;;;;;;5027268;28;20726;-63
2021/01/11 00:27:43;;;;;;;12.23;3.88;;;-1.10;99.90;;;;;;5025213;28;20067;-63
2021/01/11 00:30:09;;;;;;;10.93;3.38;;;-1.20;99.90;;;;;;5046599;28;20439;-63
2021/01/11 00:32:39;;;;;;;8.00;3.67;;;-1.10;99.90;;;;;;5046876;28;20036;-64
2021/01/11 00:35:05;;;;;;;8.75;3.72;;;-1.10;99.90;;;;;;5046860;28;20045;-64
2021/01/11 00:37:33;;;;;;;11.30;3.85;;;-1.10;99.90;;;;;;5041341;28;20046;-64
2021/01/11 00:39:58;;;;;;;12.90;3.63;;;-1.10;99.90;;;;;;5026316;28;20042;-64
2021/01/11 00:42:24;;;;;;;8.23;3.80;;;-1.10;99.90;;;;;;5028915;28;20100;-65
2021/01/11 00:44:49;;;;;;;9.75;3.97;;;-1.10;99.90;;;;;;5041727;28;20103;-63
2021/01/11 00:47:15;;;;;;;11.98;3.70;;;-1.10;99.90;;;;;;5046497;28;20041;-63
2021/01/11 00:49:41;;;;;;;9.32;4.13;;;-1.10;99.90;;;;;;5043629;28;20054;-64
2021/01/11 00:52:07;;;;;;;9.00;3.92;;;-1.20;99.90;;;;;;5051211;28;20969;-63
2021/01/11 00:54:33;;;;;;;7.53;4.07;;;-1.20;99.90;;;;;;5046693;28;20041;-62
2021/01/11 00:56:58;;;;;;;11.13;5.15;;;-1.20;99.90;;;;;;5041214;28;20041;-63
2021/01/11 00:59:25;;;;;;;18.65;4.72;;;-1.20;99.90;;;;;;5037379;28;20041;-63
2021/01/11 01:01:52;;;;;;;10.85;4.55;;;-1.20;99.90;;;;;;5043618;28;20040;-63
2021/01/11 01:04:18;;;;;;;12.15;3.50;;;-1.30;99.90;;;;;;5044886;28;20779;-63
2021/01/11 01:06:44;;;;;;;15.73;4.15;;;-1.30;99.90;;;;;;5025820;28;20049;-63
2021/01/11 01:09:09;;;;;;;12.55;4.15;;;-1.30;99.90;;;;;;5026283;28;20047;-64
2021/01/11 01:11:39;;;;;;;10.05;4.38;;;-1.30;99.90;;;;;;5033486;28;20052;-63
2021/01/11 01:14:05;;;;;;;11.35;5.78;;;-1.40;99.90;;;;;;5032367;28;20131;-63
2021/01/11 01:16:31;;;;;;;16.33;4.88;;;-1.40;99.90;;;;;;5046642;28;20135;-63
2021/01/11 01:18:57;;;;;;;7.88;3.97;;;-1.40;99.90;;;;;;5025792;28;20041;-63
2021/01/11 01:21:22;;;;;;;11.40;4.07;;;-1.40;99.90;;;;;;5034352;28;20715;-63
2021/01/11 01:23:48;;;;;;;12.73;4.00;;;-1.40;99.90;;;;;;5042545;28;20052;-63
2021/01/11 01:26:13;;;;;;;10.55;4.22;;;-1.30;99.90;;;;;;5050404;28;20033;-63
2021/01/11 01:28:39;;;;;;;9.52;4.10;;;-1.40;99.90;;;;;;5064538;28;20460;-63
2021/01/11 01:31:05;;;;;;;8.73;4.03;;;-1.40;99.90;;;;;;5051145;28;20068;-63
2021/01/11 01:33:30;;;;;;;10.52;4.72;;;-1.40;99.90;;;;;;5033031;28;20140;-63
2021/01/11 01:35:56;;;;;;;10.20;4.20;;;-1.40;99.90;;;;;;5045047;28;20424;-63
2021/01/11 01:38:21;;;;;;;10.52;5.20;;;-1.40;99.90;;;;;;5031928;28;20037;-63
2021/01/11 01:40:47;;;;;;;9.35;4.55;;;-1.40;99.90;;;;;;5024022;28;20158;-63
2021/01/11 01:43:13;;;;;;;9.98;4.43;;;-1.40;99.90;;;;;;5034129;28;20056;-64
2021/01/11 01:45:39;;;;;;;11.52;4.53;;;-1.30;99.90;;;;;;5051388;28;20041;-61
2021/01/11 01:48:06;;;;;;;12.32;4.90;;;-1.30;99.90;;;;;;5037333;28;20593;-63
2021/01/11 01:50:31;;;;;;;16.55;4.95;;;-1.30;99.90;;;;;;5023521;28;20075;-63
2021/01/11 01:52:57;;;;;;;12.60;5.13;;;-1.20;99.90;;;;;;5028496;28;20068;-64
2021/01/11 01:55:23;;;;;;;13.15;4.60;;;-1.20;99.90;;;;;;5046768;28;20044;-63
2021/01/11 01:57:51;;;;;;;10.95;4.63;;;-1.20;99.90;;;;;;5045912;28;20041;-63
2021/01/11 02:00:17;;;;;;;12.00;4.47;;;-1.20;99.90;;;;;;5025662;28;20049;-63
2021/01/11 02:02:42;;;;;;;9.80;4.65;;;-1.20;99.90;;;;;;5045033;28;20075;-64
2021/01/11 02:05:09;;;;;;;16.77;4.90;;;-1.20;99.90;;;;;;5053869;28;20048;-63
2021/01/11 02:07:53;;;;;;;12.50;5.13;;;-1.20;99.90;;;;;;5053614;28;20061;-63
2021/01/11 02:10:26;;;;;;;10.38;4.70;;;-1.20;99.90;;;;;;5047859;28;20048;-65
2021/01/11 02:13:31;;;;;;;11.35;4.95;;;-1.10;99.90;;;;;;5051922;28;20068;-65
2021/01/11 02:16:08;;;;;;;11.90;4.63;;;-1.10;99.90;;;;;;5056004;28;20041;-63
2021/01/11 02:18:57;;;;;;;12.82;4.68;;;-1.10;99.90;;;;;;5064900;28;20123;-63
2021/01/11 02:21:26;;;;;;;17.02;5.95;;;-1.10;99.90;;;;;;5056760;28;20043;-63
2021/01/11 02:24:11;;;;;;;24.27;5.25;;;-1.10;99.90;;;;;;5064277;28;20041;-64
2021/01/11 02:26:49;;;;;;;12.60;4.28;;;-1.10;99.90;;;;;;5059649;28;20045;-62
2021/01/11 02:29:33;;;;;;;14.05;5.10;;;-1.10;99.90;;;;;;5064731;28;20612;-59
2021/01/11 02:31:59;;;;;;;12.77;5.07;;;-1.00;99.90;;;;;;5064846;28;20041;-65
2021/01/11 02:34:27;;;;;;;16.48;4.95;;;-1.00;99.90;;;;;;5065719;28;20580;-63
2021/01/11 02:36:54;;;;;;;12.63;4.85;;;-1.00;99.90;;;;;;5063125;28;20114;-64
2021/01/11 02:39:19;;;;;;;12.18;5.28;;;-0.90;99.90;;;;;;5073634;28;20058;-63
2021/01/11 02:41:45;;;;;;;11.43;4.55;;;-1.00;99.90;;;;;;5065069;28;20493;-64
2021/01/11 02:44:10;;;;;;;9.23;4.20;;;-1.00;99.90;;;;;;5062331;28;20037;-63
2021/01/11 02:46:36;;;;;;;10.73;5.13;;;-1.00;99.90;;;;;;5055046;28;20041;-65
2021/01/11 02:49:13;;;;;;;13.13;4.90;;;-0.90;99.90;;;;;;5051698;28;20083;-63
2021/01/11 02:51:50;;;;;;;13.32;4.95;;;-0.90;99.90;;;;;;5065074;28;20116;-64
2021/01/11 02:54:20;;;;;;;10.95;4.53;;;-0.90;99.90;;;;;;5064815;28;20115;-64
2021/01/11 02:56:52;;;;;;;14.88;5.45;;;-0.90;99.90;;;;;;5064949;28;20044;-64
2021/01/11 02:59:29;;;;;;;13.27;5.03;;;-0.90;99.90;;;;;;5063147;28;20048;-63
2021/01/11 03:02:08;;;;;;;16.85;5.15;;;-0.90;99.90;;;;;;5047181;28;20087;-64
2021/01/11 03:04:34;;;;;;;13.18;5.07;;;-0.90;99.90;;;;;;5048139;28;20045;-64
2021/01/11 03:07:03;;;;;;;18.75;5.68;;;-0.90;99.90;;;;;;5064441;28;20518;-60
2021/01/11 03:09:29;;;;;;;15.52;5.07;;;-1.00;99.90;;;;;;5062661;28;20049;-64
2021/01/11 03:11:59;;;;;;;13.98;5.38;;;-1.00;99.90;;;;;;5060367;28;20036;-64
2021/01/11 03:14:25;;;;;;;19.13;5.60;;;-0.90;99.90;;;;;;5061111;28;20044;-62
2021/01/11 03:16:51;;;;;;;10.25;4.55;;;-0.90;99.90;;;;;;5060628;28;20411;-64
2021/01/11 03:19:17;;;;;;;14.40;5.82;;;-0.90;99.90;;;;;;5064032;28;20040;-63
2021/01/11 03:21:42;;;;;;;14.30;5.68;;;-0.90;99.90;;;;;;5063938;28;20075;-62
2021/01/11 03:24:08;;;;;;;16.33;5.55;;;-0.90;99.90;;;;;;5046896;28;20088;-64
2021/01/11 03:26:34;;;;;;;13.85;5.45;;;-0.80;99.90;;;;;;5043865;28;20080;-64
2021/01/11 03:29:00;;;;;;;16.48;4.40;;;-0.80;99.90;;;;;;5043952;28;20400;-64
2021/01/11 03:31:26;;;;;;;19.55;5.18;;;-0.80;99.90;;;;;;5043128;28;20038;-64
2021/01/11 03:33:51;;;;;;;14.07;5.95;;;-0.80;99.90;;;;;;5044554;28;20059;-64
2021/01/11 03:36:18;;;;;;;16.90;5.50;;;-0.80;99.90;;;;;;5044509;28;20041;-59
2021/01/11 03:38:44;;;;;;;11.20;5.50;;;-0.80;99.90;;;;;;5079068;28;20085;-64
2021/01/11 03:41:10;;;;;;;16.63;5.32;;;-0.70;99.90;;;;;;5084247;28;20090;-64
2021/01/11 03:43:40;;;;;;;13.60;5.90;;;-0.70;99.90;;;;;;5064527;28;20041;-65
2021/01/11 03:46:07;;;;;;;19.45;6.10;;;-0.70;99.90;;;;;;5059214;28;20040;-61
2021/01/11 03:48:33;;;;;;;13.52;5.88;;;-0.70;99.90;;;;;;5064393;28;20041;-65
2021/01/11 03:51:00;;;;;;;18.92;7.68;;;-0.70;99.90;;;;;;5067314;28;20040;-64
2021/01/11 03:53:25;;;;;;;11.75;6.30;;;-0.70;99.90;;;;;;5064113;28;20115;-62
2021/01/11 03:55:51;;;;;;;20.13;6.25;;;-0.70;99.90;;;;;;5062965;28;20119;-64
2021/01/11 03:58:17;;;;;;;14.20;6.75;;;-0.70;99.90;;;;;;5067642;28;20519;-64
2021/01/11 04:00:42;;;;;;;20.13;6.60;;;-0.70;99.90;;;;;;5061787;28;20037;-64
2021/01/11 04:03:08;;;;;;;15.15;6.35;;;-0.80;99.90;;;;;;5063303;28;20036;-61
2021/01/11 04:05:35;;;;;;;12.50;5.80;;;-0.70;99.90;;;;;;5068356;28;20123;-64
2021/01/11 04:08:03;;;;;;;20.58;6.82;;;-0.80;99.90;;;;;;5067518;28;20439;-64
2021/01/11 04:10:29;;;;;;;15.38;5.93;;;-0.70;99.90;;;;;;5063200;28;20092;-63
2021/01/11 04:12:54;;;;;;;14.75;5.55;;;-0.70;99.90;;;;;;5055638;28;20565;-65
2021/01/11 04:15:20;;;;;;;19.55;5.78;;;-0.70;99.90;;;;;;5066102;28;20195;-65
2021/01/11 04:17:49;;;;;;;21.58;6.57;;;-0.80;99.90;;;;;;5047740;28;20037;-64
2021/01/11 04:20:14;;;;;;;23.73;7.10;;;-0.80;99.90;;;;;;5047671;28;20036;-64
2021/01/11 04:22:40;;;;;;;21.25;6.72;;;-0.80;99.90;;;;;;5064633;28;20170;-64
2021/01/11 04:25:06;;;;;;;18.45;6.40;;;-0.70;99.90;;;;;;5066355;28;20064;-64
2021/01/11 04:27:31;;;;;;;19.92;6.85;;;-0.70;99.90;;;;;;5047549;28;20128;-64
2021/01/11 04:29:57;;;;;;;16.83;7.20;;;-0.70;99.90;;;;;;5047302;28;20501;-65
2021/01/11 04:32:22;;;;;;;17.58;6.10;;;-0.70;99.90;;;;;;5046868;28;20405;-65
2021/01/11 04:34:48;;;;;;;20.20;7.80;;;-0.70;99.90;;;;;;5047677;28;20044;-64
2021/01/11 04:37:14;;;;;;;30.90;9.30;;;-0.70;99.90;;;;;;5053251;28;20040;-64
2021/01/11 04:39:39;;;;;;;21.25;7.10;;;-0.60;99.90;;;;;;5063183;28;20041;-61
2021/01/11 04:42:10;;;;;;;21.90;7.40;;;-0.60;99.90;;;;;;5047839;28;20055;-64
2021/01/11 04:44:36;;;;;;;19.25;7.60;;;-0.60;99.90;;;;;;5062792;28;20136;-62
2021/01/11 04:47:02;;;;;;;25.33;8.05;;;-0.60;99.90;;;;;;5055876;28;20055;-60
2021/01/11 04:49:29;;;;;;;20.30;8.10;;;-0.70;99.90;;;;;;5084136;28;20044;-62
2021/01/11 04:51:55;;;;;;;17.30;7.18;;;-0.70;99.90;;;;;;5058096;28;20481;-64
2021/01/11 04:54:22;;;;;;;22.40;7.28;;;-0.70;99.90;;;;;;5046693;28;20045;-64
2021/01/11 04:56:49;;;;;;;21.70;7.75;;;-0.80;99.90;;;;;;5058793;28;20470;-63
2021/01/11 04:59:19;;;;;;;17.33;7.30;;;-0.70;99.90;;;;;;5066685;28;20036;-65
2021/01/11 05:01:51;;;;;;;17.15;7.22;;;-0.80;99.90;;;;;;5062827;28;20033;-65
2021/01/11 05:04:16;;;;;;;16.73;7.07;;;-0.70;99.90;;;;;;5047829;28;20056;-60
2021/01/11 05:06:45;;;;;;;20.67;6.57;;;-0.70;99.90;;;;;;5059353;28;20544;-63
2021/01/11 05:09:14;;;;;;;18.48;6.63;;;-0.70;99.90;;;;;;5065069;28;20044;-62
2021/01/11 05:11:40;;;;;;;16.00;6.57;;;-0.70;99.90;;;;;;5052517;28;20044;-66
2021/01/11 05:14:07;;;;;;;17.75;7.60;;;-0.60;99.90;;;;;;5056837;28;20110;-65
2021/01/11 05:16:34;;;;;;;15.93;6.78;;;-0.70;99.90;;;;;;5063038;28;20053;-65
2021/01/11 05:19:25;;;;;;;17.67;5.97;;;-0.60;99.90;;;;;;5065042;28;20123;-66
2021/01/11 05:21:52;;;;;;;17.85;6.30;;;-0.60;99.90;;;;;;5064927;28;20144;-65
2021/01/11 05:24:34;;;;;;;15.15;5.82;;;-0.60;99.90;;;;;;5058558;28;20124;-60
2021/01/11 05:27:11;;;;;;;14.48;6.43;;;-0.60;99.90;;;;;;5045198;28;20095;-63
2021/01/11 05:29:38;;;;;;;17.88;5.88;;;-0.60;99.90;;;;;;5060089;28;20123;-63
2021/01/11 05:32:10;;;;;;;20.00;7.43;;;-0.60;99.90;;;;;;5064399;28;20047;-63
2021/01/11 05:34:52;;;;;;;22.90;6.55;;;-0.60;99.90;;;;;;5063779;28;20055;-62
2021/01/11 05:37:30;;;;;;;18.58;6.30;;;-0.60;99.90;;;;;;5074038;28;20408;-63
2021/01/11 05:40:14;;;;;;;22.90;6.55;;;-0.70;99.90;;;;;;5075070;28;20119;-63
2021/01/11 05:42:40;;;;;;;17.42;6.68;;;-0.70;99.90;;;;;;5071361;28;20726;-63
2021/01/11 05:45:17;;;;;;;13.90;6.22;;;-0.70;99.90;;;;;;5063369;28;20036;-62
2021/01/11 05:47:56;;;;;;;20.92;8.07;;;-0.80;99.90;;;;;;5045942;28;20091;-63
2021/01/11 05:50:26;;;;;;;12.18;5.97;;;-0.80;99.90;;;;;;5056507;28;20044;-63
2021/01/11 05:52:52;;;;;;;18.40;5.97;;;-0.80;99.90;;;;;;5065539;28;20045;-62
2021/01/11 05:55:23;;;;;;;12.32;5.60;;;-0.80;99.90;;;;;;5058190;28;20070;-63
2021/01/11 05:58:00;;;;;;;17.83;5.65;;;-0.80;99.90;;;;;;5045954;28;20484;-63
2021/01/11 06:00:29;;;;;;;19.70;5.72;;;-0.80;99.90;;;;;;5044779;28;20070;-62
2021/01/11 06:02:55;;;;;;;12.15;5.70;;;-0.80;99.90;;;;;;5056064;28;20079;-63
2021/01/11 06:05:21;;;;;;;15.10;4.93;;;-0.80;99.90;;;;;;5050915;28;20052;-61
2021/01/11 06:07:47;;;;;;;14.13;5.15;;;-0.80;99.90;;;;;;5064991;28;20137;-63
2021/01/11 06:10:14;;;;;;;14.57;5.47;;;-0.70;99.90;;;;;;5063399;28;20044;-64
2021/01/11 06:12:41;;;;;;;11.60;4.85;;;-0.70;99.90;;;;;;5058017;28;20087;-63
2021/01/11 06:15:09;;;;;;;10.30;4.72;;;-0.70;99.90;;;;;;5062602;28;20040;-64
2021/01/11 06:17:36;;;;;;;13.63;4.20;;;-0.70;99.90;;;;;;5064583;28;20040;-63
2021/01/11 06:20:03;;;;;;;10.35;4.72;;;-0.70;99.90;;;;;;5050079;28;20576;-62
2021/01/11 06:22:44;;;;;;;11.60;5.13;;;-0.70;99.90;;;;;;5058528;28;20291;-63
2021/01/11 06:25:24;;;;;;;14.05;4.82;;;-0.60;99.90;;;;;;5044480;28;20044;-64
2021/01/11 06:28:03;;;;;;;12.98;4.35;;;-0.60;99.90;;;;;;5063798;28;20047;-62
2021/01/11 06:30:37;;;;;;;9.20;4.22;;;-0.60;99.90;;;;;;5063745;28;20036;-63
2021/01/11 06:33:09;;;;;;;9.40;4.38;;;-0.50;99.90;;;;;;5056340;28;20111;-63
2021/01/11 06:35:48;;;;;;;14.88;4.63;;;-0.50;99.90;;;;;;5043865;28;20128;-63
2021/01/11 06:38:25;;;;;;;9.13;4.00;;;-0.40;99.90;;;;;;5067421;28;20047;-62
2021/01/11 06:41:03;;;;;;;11.80;3.97;;;-0.50;99.90;;;;;;5082863;28;20077;-64
2021/01/11 06:43:42;;;;;;;15.32;4.20;;;-0.40;99.90;;;;;;5072308;28;20413;-61
2021/01/11 06:46:10;;;;;;;9.15;3.83;;;-0.40;99.90;;;;;;5063587;28;20035;-63
2021/01/11 06:48:39;;;;;;;9.68;4.05;;;-0.40;99.90;;;;;;5057611;28;20436;-63
2021/01/11 06:51:09;;;;;;;11.13;4.80;;;-0.50;99.90;;;;;;5064943;28;20048;-62
2021/01/11 06:53:36;;;;;;;12.15;4.00;;;-0.50;99.90;;;;;;5063344;28;20464;-63
2021/01/11 06:56:12;;;;;;;7.18;3.50;;;-0.50;99.90;;;;;;5064409;28;20087;-62
2021/01/11 06:58:40;;;;;;;12.75;4.85;;;-0.50;99.90;;;;;;5045001;28;20121;-62
2021/01/11 07:01:11;;;;;;;6.97;4.03;;;-0.60;99.90;;;;;;5043036;28;20041;-62
2021/01/11 07:03:50;;;;;;;12.70;4.10;;;-0.60;99.90;;;;;;5056380;28;20131;-62
2021/01/11 07:06:41;;;;;;;14.63;4.68;;;-0.60;99.90;;;;;;5064830;28;20049;-62
2021/01/11 07:09:18;;;;;;;10.63;3.50;;;-0.60;99.90;;;;;;5058509;28;20684;-60
2021/01/11 07:11:49;;;;;;;14.18;5.20;;;-0.50;99.90;;;;;;5058798;28;20120;-63
2021/01/11 07:14:21;;;;;;;12.15;4.50;;;-0.60;99.90;;;;;;5059243;28;20079;-62
2021/01/11 07:16:50;;;;;;;13.98;4.70;;;-0.60;99.90;;;;;;5064026;28;20847;-60
2021/01/11 07:19:20;;;;;;;9.73;4.05;;;-0.60;99.90;;;;;;5046405;28;20105;-62
2021/01/11 07:21:50;;;;;;;9.75;4.05;;;-0.60;99.90;;;;;;5055705;28;20095;-63
2021/01/11 07:24:17;;;;;;;9.32;4.55;;;-0.60;99.90;;;;;;5048912;28;20037;-63
2021/01/11 07:26:43;;;;;;;6.78;3.50;;;-0.60;99.90;;;;;;5048088;28;20698;-63
2021/01/11 07:29:15;;;;;;;5.88;3.30;;;-0.50;99.90;;;;;;5061778;28;20036;-62
2021/01/11 07:31:45;;;;;;;12.48;3.33;;;-0.50;99.90;;;;;;5067633;28;20041;-63
2021/01/11 07:34:17;;;;;;;7.55;2.70;;;-0.50;99.90;;;;;;5067649;28;20040;-62
2021/01/11 07:36:47;;;;;;;9.40;3.00;;;-0.50;99.90;;;;;;5069443;28;20036;-63
2021/01/11 07:39:24;;;;;;;5.57;2.83;;;-0.40;99.90;;;;;;5069800;28;20044;-64
2021/01/11 07:42:01;;;;;;;6.00;2.95;;;-0.40;99.90;;;;;;5067458;28;20040;-62
2021/01/11 07:44:32;;;;;;;4.55;2.42;;;-0.40;99.90;;;;;;5067832;28;20634;-64
2021/01/11 07:47:06;;;;;;;6.05;2.33;;;-0.30;99.90;;;;;;5067406;28;20041;-63
2021/01/11 07:49:34;;;;;;;7.63;3.13;;;-0.40;99.90;;;;;;5067724;28;20055;-63
2021/01/11 07:52:14;;;;;;;7.25;2.72;;;-0.40;99.90;;;;;;5068094;28;20041;-63
2021/01/11 07:54:41;;;;;;;9.13;2.75;;;-0.30;99.90;;;;;;5067873;28;20052;-63
2021/01/11 07:57:14;;;;;;;5.97;2.67;;;-0.40;99.90;;;;;;5064381;28;20040;-62
2021/01/11 07:59:44;;;;;;;6.80;3.03;;;-0.40;99.90;;;;;;5063260;28;20029;-62
2021/01/11 08:02:13;;;;;;;7.60;3.10;;;-0.40;99.90;;;;;;5062671;28;20046;-62
2021/01/11 08:04:41;;;;;;;6.13;2.92;;;-0.40;99.90;;;;;;5048863;28;20048;-60
2021/01/11 08:07:08;;;;;;;8.45;2.70;;;-0.30;99.90;;;;;;5053879;28;20036;-62
2021/01/11 08:09:34;;;;;;;6.75;2.40;;;-0.30;99.90;;;;;;5049696;28;20050;-62
2021/01/11 08:12:15;;;;;;;8.60;2.75;;;-0.20;99.90;;;;;;5064945;28;20120;-61
2021/01/11 08:14:42;;;;;;;8.90;2.58;;;-0.20;99.90;;;;;;5059905;28;20051;-60
2021/01/11 08:17:23;;;;;;;9.65;2.70;;;-0.20;99.90;;;;;;5065646;28;20573;-60
2021/01/11 08:19:53;;;;;;;8.90;2.65;;;-0.10;99.90;;;;;;5061398;28;20063;-61
2021/01/11 08:22:20;;;;;;;9.43;2.78;;;-0.10;99.90;;;;;;5066018;28;20044;-61
2021/01/11 08:24:53;;;;;;;5.38;2.28;;;0.00;99.90;;;;;;5066183;28;20041;-60
2021/01/11 08:27:31;;;;;;;6.25;2.10;;;-0.10;99.90;;;;;;5066186;28;20048;-58
2021/01/11 08:30:23;;;;;;;5.00;2.22;;;-0.10;99.90;;;;;;5057939;28;20064;-60
2021/01/11 08:32:49;;;;;;;3.13;1.98;;;0.00;99.90;;;;;;5051986;28;20273;-59
2021/01/11 08:35:20;;;;;;;4.85;2.67;;;0.00;99.90;;;;;;5065130;28;20554;-62
2021/01/11 08:37:46;;;;;;;4.95;2.22;;;0.10;99.90;;;;;;5066071;28;20050;-63
2021/01/11 08:40:17;;;;;;;6.75;2.60;;;0.10;99.90;;;;;;5066556;28;20416;-68
2021/01/11 08:42:44;;;;;;;5.93;2.50;;;0.00;99.90;;;;;;5058239;28;20045;-61
2021/01/11 08:45:29;;;;;;;4.18;2.10;;;0.00;99.90;;;;;;5064157;28;20040;-61
2021/01/11 08:48:08;;;;;;;5.72;2.33;;;0.00;99.90;;;;;;5045933;28;20178;-60
2021/01/11 08:51:00;;;;;;;6.10;2.40;;;0.00;99.90;;;;;;5045984;28;20433;-60
2021/01/11 08:53:37;;;;;;;7.28;2.30;;;0.00;99.90;;;;;;5043094;28;20098;-60
2021/01/11 08:56:06;;;;;;;3.60;2.08;;;0.00;99.90;;;;;;5047036;28;20040;-64
2021/01/11 08:58:36;;;;;;;6.07;2.80;;;0.00;99.90;;;;;;5044496;28;20033;-61
2021/01/11 09:01:16;;;;;;;6.85;3.00;;;0.00;99.90;;;;;;5045106;28;20132;-61
2021/01/11 09:03:50;;;;;;;5.93;2.75;;;0.00;99.90;;;;;;5053361;28;20586;-61
2021/01/11 09:06:38;;;;;;;7.15;2.50;;;0.00;99.90;;;;;;5062553;28;20123;-61
2021/01/11 09:09:10;;;;;;;5.93;2.90;;;0.10;99.90;;;;;;5060410;28;20040;-60
2021/01/11 09:11:37;;;;;;;6.85;3.00;;;0.00;99.90;;;;;;5064057;28;20041;-61
2021/01/11 09:14:04;;;;;;;7.72;3.35;;;0.10;99.90;;;;;;5064647;28;20070;-61
2021/01/11 09:16:32;;;;;;;11.05;5.22;;;0.00;99.90;;;;;;5065928;28;20051;-60
2021/01/11 09:19:08;;;;;;;9.07;4.32;;;-0.10;99.90;;;;;;5065395;28;20451;-61
2021/01/11 09:21:34;;;;;;;10.02;4.68;;;-0.20;99.90;;;;;;5058121;28;20043;-57
2021/01/11 09:23:59;;;;;;;10.68;5.05;;;-0.20;99.90;;;;;;5058574;28;20049;-61
2021/01/11 09:26:25;;;;;;;8.00;4.47;;;-0.10;99.90;;;;;;5085794;28;20503;-59
2021/01/11 09:28:51;;;;;;;9.57;4.78;;;0.00;99.90;;;;;;5068816;28;20041;-60
2021/01/11 09:31:17;;;;;;;10.88;5.32;;;0.10;99.90;;;;;;5064879;28;20094;-61
2021/01/11 09:33:42;;;;;;;15.25;5.85;;;0.00;99.90;;;;;;5061806;28;20044;-59
2021/01/11 09:36:08;;;;;;;11.82;5.68;;;0.00;99.90;;;;;;5063082;28;20036;-62
2021/01/11 09:38:34;;;;;;;10.25;5.25;;;0.10;99.90;;;;;;5063673;28;20068;-59
2021/01/11 09:40:59;;;;;;;15.52;5.60;;;0.10;99.90;;;;;;5063794;28;20036;-61
2021/01/11 09:43:25;;;;;;;11.63;5.00;;;0.10;99.90;;;;;;5064144;28;20032;-62
2021/01/11 09:45:51;;;;;;;8.93;4.65;;;0.20;99.90;;;;;;5063941;28;20499;-60
2021/01/11 09:48:16;;;;;;;14.80;4.80;;;0.30;99.90;;;;;;5063144;28;20094;-61
2021/01/11 09:50:42;;;;;;;8.50;4.20;;;0.30;99.90;;;;;;5066360;28;20032;-61
2021/01/11 09:53:08;;;;;;;13.15;4.68;;;0.40;99.90;;;;;;5065682;28;20072;-61
2021/01/11 09:55:35;;;;;;;9.57;4.20;;;0.60;99.90;;;;;;5056176;28;20203;-61
2021/01/11 09:58:02;;;;;;;8.32;4.47;;;0.70;99.90;;;;;;5059713;28;20036;-61
2021/01/11 10:00:27;;;;;;;7.85;4.10;;;0.70;99.90;;;;;;5062238;28;20830;-61
2021/01/11 10:02:53;;;;;;;9.00;3.20;;;0.70;99.90;;;;;;5064720;28;20044;-61
2021/01/11 10:05:20;;;;;;;10.85;3.80;;;0.70;99.90;;;;;;5064967;28;20041;-61
2021/01/11 10:07:46;;;;;;;14.63;4.22;;;0.70;99.90;;;;;;5061088;28;20059;-61
2021/01/11 10:10:13;;;;;;;12.45;6.65;;;0.80;99.90;;;;;;5047416;28;20102;-61
2021/01/11 10:12:39;;;;;;;8.10;3.40;;;0.90;99.90;;;;;;5057080;28;20036;-61
2021/01/11 10:15:06;;;;;;;6.97;3.55;;;1.00;99.90;;;;;;5064541;28;20085;-61
2021/01/11 10:17:31;;;;;;;6.30;3.90;;;1.10;99.90;;;;;;5063659;28;20044;-61
2021/01/11 10:19:57;;;;;;;7.35;2.80;;;1.30;99.90;;;;;;5058240;28;20044;-61
2021/01/11 10:22:23;;;;;;;6.72;2.92;;;1.50;99.90;;;;;;5053321;28;20431;-61
2021/01/11 10:24:50;;;;;;;3.92;2.20;;;1.50;99.90;;;;;;5065715;28;20072;-59
2021/01/11 10:27:17;;;;;;;9.95;4.10;;;1.60;99.90;;;;;;5064926;28;20536;-61
2021/01/11 10:29:42;;;;;;;6.10;2.42;;;1.70;99.90;;;;;;5064174;28;20427;-61
2021/01/11 10:32:08;;;;;;;9.80;4.28;;;1.70;99.90;;;;;;5064136;28;20043;-61
2021/01/11 10:34:34;;;;;;;5.38;2.83;;;1.80;99.90;;;;;;5064967;28;20062;-58
2021/01/11 10:36:59;;;;;;;9.20;4.32;;;1.90;99.90;;;;;;5064775;28;20139;-60
2021/01/11 10:39:25;;;;;;;7.13;2.67;;;1.90;99.90;;;;;;5065410;28;20045;-57
2021/01/11 10:41:52;;;;;;;6.35;3.15;;;1.90;99.90;;;;;;5044723;28;20036;-58
2021/01/11 10:44:19;;;;;;;5.68;2.95;;;1.90;99.90;;;;;;5053591;28;20048;-61
2021/01/11 10:46:44;;;;;;;5.97;3.33;;;1.90;99.90;;;;;;5060884;28;20040;-60
2021/01/11 10:49:10;;;;;;;5.38;2.92;;;2.00;99.90;;;;;;5063431;28;20033;-58
2021/01/11 10:51:36;;;;;;;5.80;2.40;;;1.90;99.90;;;;;;5065159;28;20489;-57
2021/01/11 10:54:03;;;;;;;5.13;2.28;;;2.00;99.90;;;;;;5062031;28;20044;-60
2021/01/11 10:56:29;;;;;;;6.35;3.35;;;2.00;99.90;;;;;;5064746;28;20046;-61
2021/01/11 10:58:54;;;;;;;4.93;2.80;;;2.00;99.90;;;;;;5063630;28;20186;-61
2021/01/11 11:01:20;;;;;;;4.45;2.33;;;2.10;99.90;;;;;;5046238;28;20048;-60
2021/01/11 11:03:46;;;;;;;4.93;2.35;;;2.10;99.90;;;;;;5064423;28;20037;-58
2021/01/11 11:06:13;;;;;;;4.85;2.53;;;2.10;99.90;;;;;;5065046;28;20068;-62
2021/01/11 11:08:39;;;;;;;4.63;2.58;;;2.00;99.90;;;;;;5059579;28;20583;-64
2021/01/11 11:11:05;;;;;;;32.42;16.92;;;2.10;99.90;;;;;;5059833;28;20044;-62
2021/01/11 11:13:31;;;;;;;8.43;4.07;;;2.10;99.90;;;;;;5059345;28;20041;-60
2021/01/11 11:15:57;;;;;;;5.93;3.20;;;2.10;99.90;;;;;;5063191;28;20032;-61
2021/01/11 11:18:22;;;;;;;19.42;12.00;;;2.10;99.90;;;;;;5064131;28;20400;-62
2021/01/11 11:20:48;;;;;;;7.95;4.10;;;2.00;99.90;;;;;;5064132;28;20036;-63
2021/01/11 11:23:16;;;;;;;5.00;2.67;;;2.00;99.90;;;;;;5058064;28;20059;-62
2021/01/11 11:25:45;;;;;;;8.50;3.00;;;2.00;99.90;;;;;;5063547;28;20053;-62
2021/01/11 11:28:12;;;;;;;8.38;3.20;;;2.10;99.90;;;;;;5060722;28;20032;-64
2021/01/11 11:30:38;;;;;;;6.60;2.95;;;2.10;99.90;;;;;;5061767;28;20085;-62
2021/01/11 11:33:03;;;;;;;5.50;3.15;;;2.10;99.90;;;;;;5064263;28;20040;-62
2021/01/11 11:35:29;;;;;;;8.70;3.25;;;2.00;99.90;;;;;;5064307;28;20032;-62
2021/01/11 11:37:55;;;;;;;5.47;3.25;;;1.90;99.90;;;;;;5070851;28;20605;-63
2021/01/11 11:40:21;;;;;;;9.20;4.22;;;1.90;99.90;;;;;;5084289;28;20040;-63
2021/01/11 11:42:47;;;;;;;6.55;3.67;;;1.90;99.90;;;;;;5073705;28;20127;-62
2021/01/11 11:45:15;;;;;;;6.03;2.92;;;2.00;99.90;;;;;;5060618;28;20186;-62
2021/01/11 11:47:42;;;;;;;8.40;3.40;;;1.90;99.90;;;;;;5050282;28;20077;-63
2021/01/11 11:50:11;;;;;;;7.70;3.55;;;1.90;99.90;;;;;;5063488;28;20446;-64
2021/01/11 11:52:37;;;;;;;8.45;3.60;;;1.80;99.90;;;;;;5056281;28;20040;-64
2021/01/11 11:55:05;;;;;;;6.20;3.25;;;1.80;99.90;;;;;;5064082;28;20032;-64
2021/01/11 11:57:30;;;;;;;7.68;3.25;;;1.80;99.90;;;;;;5051249;28;20126;-63
2021/01/11 11:59:56;;;;;;;5.43;2.67;;;1.70;99.90;;;;;;5053333;28;20065;-63
2021/01/11 12:02:21;;;;;;;4.10;2.60;;;1.70;99.90;;;;;;5045670;28;20049;-63
2021/01/11 12:04:47;;;;;;;4.70;2.63;;;1.70;99.90;;;;;;5053735;28;20052;-63
2021/01/11 12:07:14;;;;;;;4.97;2.97;;;1.80;99.90;;;;;;5060617;28;20032;-62
2021/01/11 12:09:40;;;;;;;4.57;2.90;;;1.70;99.90;;;;;;5049048;28;20040;-61
2021/01/11 12:12:05;;;;;;;5.72;3.17;;;1.60;99.90;;;;;;5061105;28;20123;-60
2021/01/11 12:14:31;;;;;;;8.15;4.05;;;1.60;99.90;;;;;;5071643;28;20530;-62
2021/01/11 12:16:58;;;;;;;10.95;5.60;;;1.70;99.90;;;;;;5065226;23;20060;-68
2021/01/11 12:19:24;;;;;;;6.15;2.97;;;1.70;99.90;;;;;;5045957;22;20079;-66
2021/01/11 12:21:49;;;;;;;4.82;2.70;;;1.70;99.90;;;;;;5047206;28;20086;-66
2021/01/11 12:24:15;;;;;;;9.05;3.47;;;1.80;99.90;;;;;;5028932;28;20048;-64
2021/01/11 12:26:48;;;;;;;5.97;3.00;;;1.70;99.90;;;;;;5046366;28;20045;-63
2021/01/11 12:29:14;;;;;;;5.60;3.13;;;1.70;99.90;;;;;;5046396;28;20041;-63
2021/01/11 12:31:40;;;;;;;5.68;3.13;;;1.60;99.90;;;;;;5045783;28;20048;-62
2021/01/11 12:34:08;;;;;;;6.18;2.97;;;1.60;99.90;;;;;;5047330;28;20132;-61
2021/01/11 12:36:35;;;;;;;6.30;3.50;;;1.60;99.90;;;;;;5046672;28;20044;-62
2021/01/11 12:39:04;;;;;;;5.30;3.08;;;1.60;99.90;;;;;;5047732;28;20045;-61
2021/01/11 12:41:29;;;;;;;6.07;3.72;;;1.60;99.90;;;;;;5046850;28;20056;-60
2021/01/11 12:43:55;;;;;;;6.53;3.70;;;1.50;99.90;;;;;;5047255;28;20041;-60
2021/01/11 12:46:22;;;;;;;9.10;4.07;;;1.50;99.90;;;;;;5037981;28;20041;-61
2021/01/11 12:48:48;;;;;;;6.80;3.90;;;1.40;99.90;;;;;;5044189;28;20044;-60
2021/01/11 12:51:18;;;;;;;11.32;4.85;;;1.40;99.90;;;;;;5036011;28;20043;-60
2021/01/11 12:53:48;;;;;;;13.05;6.63;;;1.30;99.90;;;;;;5034331;28;20073;-59